Deal Island, Maryland
Current Conditions -  °F | °C
As of 6:37 PM on Saturday 20 Dec 2014 (Local Time) from KTGI Reporting Station
Overcast Overcast  
Wind Chill: 36°   Ceiling: 11000
Heat Index: 36°   Visibility: 10mi
Dew Point: 28°   Wind: 3mph
Humidity: 75%   Direction: 350°N
Pressure: 30.3"   Gusts: NA
Location:  38.16°N, 75.95°W
Report Text: KTGI 202337Z AUTO 35003KT 10SM OVC110 02/M02 A3030 RMK AO1
Loading
Personal Weather Stations






























Interactive Weather Map New forecast layout! Learn more

10-Day Weather Forecast

Advertisements
Track Severe Weather on mobile